Weather History for Wahoo, NE

Change the Weather History Date:

Saturday, April 6, 2013

  Actual Average Record
Temperature  
Mean Temperature 60 °F -  
Max Temperature 72 °F 64 °F 90 °F (1972)
Min Temperature 48 °F 34 °F 15 °F (1982)
Degree Days  
Heating Degree Days 4    
Growing Degree Days 10 (Base 50)    
Moisture  
Dew Point 39 °F    
Average Humidity 50    
Maximum Humidity 76    
Minimum Humidity 25    
Precipitation  
Precipitation 0.00 in - - ()
Sea Level Pressure  
Sea Level Pressure 29.67 in    
Wind  
Wind Speed 14 mph (West)    
Max Wind Speed 26 mph    
Max Gust Speed 34 mph    
Visibility 10 miles    
Events Rain    
Averages and records for this station are not official NWS values.
T = Trace of Precipitation, MM = Missing Value Source: NWS Daily Summary

Daily Weather History Graph

Daily Weather History Graph

Search for Another Location

Airport:

Trip Planner

Search our weather history database for the weather conditions in past years. The results will help you decide how hot, cold, wet, or windy it might be!

Date:

Astronomy

Apr. 06, 2013 Rise Set
Actual Time 7:00 AM CDT 7:57 PM CDT
Civil Twilight 6:32 AM CDT 8:25 PM CDT
Nautical Twilight 5:59 AM CDT 8:58 PM CDT
Astronomical Twilight 5:24 AM CDT 9:33 PM CDT
Moon 4:47 AM CDT (4/6) 4:25 PM CDT (4/6)
Length of Visible Light 13h 52m
Length of Day
12h 56m
Waning Crescent, 15% of the Moon is Illuminated
Apr 6
Waning Crescent
Apr 10
New
Apr 18
First Quarter
Apr 25
Full
May 2
Last Quarter

Hourly Weather History & Observations

Time (CDT) Temp. Dew Point Humidity Pressure Visibility Wind Dir Wind Speed Gust Speed Precip Events Conditions
12:15 AM 56.8 °F 37.0 °F 48% 29.69 in 10.0 mi South 13.8 mph - N/A   Clear
12:35 AM 55.9 °F 37.4 °F 50% 29.68 in 10.0 mi South 17.3 mph - N/A   Clear
12:55 AM 57.4 °F 37.6 °F 48% 29.68 in 10.0 mi South 16.1 mph - N/A   Clear
1:15 AM 59.0 °F 37.9 °F 46% 29.68 in 10.0 mi South 19.6 mph 26.5 mph N/A   Clear
1:35 AM 59.0 °F 38.7 °F 47% 29.68 in 10.0 mi South 18.4 mph 23.0 mph N/A   Clear
1:55 AM 59.2 °F 39.2 °F 48% 29.68 in 10.0 mi South 18.4 mph 23.0 mph N/A   Clear
2:15 AM 59.2 °F 39.6 °F 48% 29.67 in 10.0 mi South 18.4 mph - N/A   Clear
2:35 AM 58.8 °F 40.1 °F 50% 29.66 in 10.0 mi South 17.3 mph 24.2 mph N/A   Clear
2:55 AM 58.5 °F 40.5 °F 51% 29.66 in 10.0 mi South 18.4 mph 24.2 mph N/A   Clear
3:15 AM 58.3 °F 40.6 °F 52% 29.65 in 10.0 mi South 16.1 mph 24.2 mph N/A   Clear
3:35 AM 57.2 °F 41.0 °F 55% 29.66 in 10.0 mi South 15.0 mph 20.7 mph N/A   Clear
3:55 AM 56.5 °F 41.2 °F 57% 29.66 in 10.0 mi South 10.4 mph 16.1 mph N/A   Clear
4:15 AM 55.6 °F 41.4 °F 59% 29.64 in 10.0 mi South 15.0 mph - N/A   Clear
4:35 AM 54.9 °F 41.5 °F 61% 29.63 in 10.0 mi South 12.7 mph - N/A   Clear
4:55 AM 54.0 °F 41.9 °F 64% 29.63 in 10.0 mi South 11.5 mph - N/A   Clear
5:15 AM 52.3 °F 41.5 °F 67% 29.62 in 10.0 mi South 11.5 mph - N/A   Clear
5:35 AM 51.6 °F 41.5 °F 68% 29.62 in 10.0 mi South 9.2 mph - N/A   Clear
5:55 AM 50.5 °F 41.7 °F 72% 29.61 in 10.0 mi South 10.4 mph - N/A   Clear
6:15 AM 51.1 °F 42.1 °F 71% 29.60 in 10.0 mi South 10.4 mph - N/A   Clear
6:35 AM 50.2 °F 42.1 °F 74% 29.59 in 10.0 mi South 8.1 mph - N/A   Clear
6:55 AM 49.5 °F 42.3 °F 76% 29.60 in 10.0 mi SSW 4.6 mph - N/A   Clear
7:15 AM 52.3 °F 43.5 °F 72% 29.61 in 10.0 mi SSW 10.4 mph - N/A   Clear
7:35 AM 53.2 °F 43.7 °F 70% 29.61 in 10.0 mi SSW 11.5 mph - N/A   Clear
7:55 AM 53.2 °F 43.7 °F 70% 29.61 in 10.0 mi SSW 8.1 mph - N/A   Clear
8:15 AM 53.4 °F 43.9 °F 70% 29.60 in 10.0 mi SW 8.1 mph - N/A   Clear
8:35 AM 53.8 °F 44.4 °F 71% 29.61 in 10.0 mi SW 9.2 mph - N/A   Clear
8:55 AM 55.6 °F 44.6 °F 67% 29.61 in 10.0 mi WSW 13.8 mph 17.3 mph N/A   Clear
9:15 AM 54.9 °F 43.3 °F 65% 29.61 in 10.0 mi West 13.8 mph 19.6 mph N/A   Clear
9:35 AM 54.0 °F 41.9 °F 64% 29.62 in 10.0 mi WNW 10.4 mph - N/A   Mostly Cloudy
9:55 AM 52.3 °F 38.8 °F 60% 29.64 in 10.0 mi WNW 15.0 mph - N/A Rain Light Rain
10:15 AM 52.7 °F 38.7 °F 59% 29.64 in 10.0 mi WNW 18.4 mph 23.0 mph N/A   Scattered Clouds
10:35 AM 53.2 °F 36.9 °F 54% 29.64 in 10.0 mi NW 17.3 mph 25.3 mph N/A   Clear
10:55 AM 52.9 °F 36.7 °F 54% 29.63 in 10.0 mi NW 16.1 mph 24.2 mph N/A   Mostly Cloudy
11:15 AM 51.8 °F 39.4 °F 63% 29.64 in 10.0 mi WNW 16.1 mph - N/A Rain Light Rain
11:35 AM 51.8 °F 39.4 °F 63% 29.65 in 10.0 mi NW 13.8 mph 23.0 mph N/A Rain Light Rain
11:55 AM 53.2 °F 40.3 °F 61% 29.66 in 10.0 mi NW 10.4 mph - N/A   Mostly Cloudy
12:15 PM 58.5 °F 40.1 °F 51% 29.66 in 10.0 mi NW 17.3 mph 27.6 mph N/A   Scattered Clouds
12:35 PM 61.7 °F 38.8 °F 43% 29.65 in 10.0 mi NW 24.2 mph 32.2 mph N/A   Clear
12:55 PM 64.4 °F 38.5 °F 38% 29.66 in 10.0 mi NW 23.0 mph 33.4 mph N/A   Clear
1:15 PM 66.6 °F 38.8 °F 36% 29.65 in 10.0 mi NW 21.9 mph 29.9 mph N/A   Clear
1:35 PM 67.1 °F 38.5 °F 35% 29.65 in 10.0 mi NW 21.9 mph 34.5 mph N/A   Clear
1:55 PM 68.5 °F 37.9 °F 33% 29.65 in 10.0 mi NW 21.9 mph 33.4 mph N/A   Clear
2:15 PM 69.1 °F 37.6 °F 32% 29.65 in 10.0 mi NW 23.0 mph 32.2 mph N/A   Clear
2:35 PM 69.8 °F 37.4 °F 31% 29.65 in 10.0 mi NW 18.4 mph 28.8 mph N/A   Clear
2:55 PM 70.3 °F 36.7 °F 29% 29.65 in 10.0 mi WNW 16.1 mph 28.8 mph N/A   Scattered Clouds
3:15 PM 70.3 °F 36.9 °F 29% 29.65 in 10.0 mi NW 19.6 mph 27.6 mph N/A   Scattered Clouds
3:35 PM 71.1 °F 37.0 °F 29% 29.66 in 10.0 mi NW 20.7 mph 29.9 mph N/A   Scattered Clouds
3:55 PM 70.3 °F 36.7 °F 29% 29.65 in 10.0 mi NNW 26.5 mph 33.4 mph N/A   Mostly Cloudy
4:15 PM 70.9 °F 37.4 °F 29% 29.67 in 10.0 mi NW 24.2 mph 29.9 mph N/A   Scattered Clouds
4:35 PM 71.6 °F 37.8 °F 29% 29.67 in 10.0 mi NW 20.7 mph 31.1 mph N/A   Mostly Cloudy
4:55 PM 71.8 °F 36.9 °F 28% 29.68 in 10.0 mi NNW 19.6 mph 28.8 mph N/A   Scattered Clouds
5:15 PM 72.0 °F 36.7 °F 28% 29.69 in 10.0 mi WNW 21.9 mph 26.5 mph N/A   Clear
5:35 PM 72.1 °F 37.2 °F 28% 29.70 in 10.0 mi NNW 13.8 mph - N/A   Scattered Clouds
5:55 PM 72.0 °F 34.3 °F 25% 29.70 in 10.0 mi NNW 15.0 mph 24.2 mph N/A   Scattered Clouds
6:15 PM 71.2 °F 34.3 °F 26% 29.70 in 10.0 mi NNW 12.7 mph 19.6 mph N/A   Scattered Clouds
6:35 PM 69.8 °F 34.3 °F 27% 29.71 in 10.0 mi NW 8.1 mph - N/A   Clear
6:55 PM 69.3 °F 34.5 °F 28% 29.71 in 10.0 mi NW 8.1 mph - N/A   Scattered Clouds
7:15 PM 67.5 °F 35.6 °F 31% 29.72 in 10.0 mi NNW 4.6 mph - N/A   Mostly Cloudy
7:35 PM 65.5 °F 35.6 °F 33% 29.73 in 10.0 mi NNW 3.5 mph - N/A   Overcast
7:55 PM 64.0 °F 35.8 °F 35% 29.73 in 10.0 mi NW 5.8 mph - N/A   Mostly Cloudy
8:15 PM 59.4 °F 36.9 °F 43% 29.73 in 10.0 mi WNW 5.8 mph - N/A   Scattered Clouds
8:35 PM 58.8 °F 38.1 °F 46% 29.74 in 10.0 mi NNW 6.9 mph - N/A   Scattered Clouds
8:55 PM 56.8 °F 38.8 °F 51% 29.75 in 10.0 mi NNW 3.5 mph - N/A   Mostly Cloudy
9:15 PM 57.6 °F 40.1 °F 52% 29.76 in 10.0 mi NNW 3.5 mph - N/A   Scattered Clouds
9:35 PM 56.7 °F 40.1 °F 54% 29.77 in 10.0 mi NNW 3.5 mph - N/A   Clear
9:55 PM 55.4 °F 40.5 °F 57% 29.77 in 10.0 mi Calm Calm - N/A   Clear
10:15 PM 53.4 °F 40.6 °F 62% 29.78 in 10.0 mi Calm Calm - N/A   Clear
10:35 PM 53.4 °F 41.0 °F 63% 29.78 in 10.0 mi WSW 4.6 mph - N/A   Clear
10:55 PM 53.2 °F 40.5 °F 62% 29.78 in 10.0 mi WSW 3.5 mph - N/A   Clear
11:15 PM 50.7 °F 39.6 °F 66% 29.78 in 10.0 mi Calm Calm - N/A   Clear
11:35 PM 49.3 °F 40.1 °F 71% 29.79 in 10.0 mi West 3.5 mph - N/A   Clear
11:55 PM 48.7 °F 40.1 °F 72% 29.79 in 10.0 mi WSW 5.8 mph - N/A   Clear